sensor_id;sensor_type;location;lat;lon;timestamp;P1;durP1;ratioP1;P2;durP2;ratioP2
37843;SDS011;63793;57.632;18.292;2024-02-21T00:00:38;3.90;;;2.10;;
37843;SDS011;63793;57.632;18.292;2024-02-21T00:03:07;3.15;;;2.67;;
37843;SDS011;63793;57.632;18.292;2024-02-21T00:05:34;4.45;;;2.67;;
37843;SDS011;63793;57.632;18.292;2024-02-21T00:08:01;2.17;;;1.77;;
37843;SDS011;63793;57.632;18.292;2024-02-21T00:10:29;6.07;;;2.70;;
37843;SDS011;63793;57.632;18.292;2024-02-21T00:12:58;4.03;;;1.88;;
37843;SDS011;63793;57.632;18.292;2024-02-21T00:15:26;1.98;;;1.60;;
37843;SDS011;63793;57.632;18.292;2024-02-21T00:17:53;3.25;;;1.83;;
37843;SDS011;63793;57.632;18.292;2024-02-21T00:20:20;2.78;;;2.15;;
37843;SDS011;63793;57.632;18.292;2024-02-21T00:22:47;3.55;;;2.65;;
37843;SDS011;63793;57.632;18.292;2024-02-21T00:25:14;2.75;;;2.42;;
37843;SDS011;63793;57.632;18.292;2024-02-21T00:27:41;3.33;;;2.92;;
37843;SDS011;63793;57.632;18.292;2024-02-21T00:30:08;5.38;;;3.00;;
37843;SDS011;63793;57.632;18.292;2024-02-21T00:32:36;4.68;;;3.80;;
37843;SDS011;63793;57.632;18.292;2024-02-21T00:35:03;5.28;;;4.10;;
37843;SDS011;63793;57.632;18.292;2024-02-21T00:37:30;4.63;;;3.78;;
37843;SDS011;63793;57.632;18.292;2024-02-21T00:39:58;6.03;;;4.32;;
37843;SDS011;63793;57.632;18.292;2024-02-21T00:42:25;5.32;;;3.42;;
37843;SDS011;63793;57.632;18.292;2024-02-21T00:44:52;4.20;;;3.10;;
37843;SDS011;63793;57.632;18.292;2024-02-21T00:47:18;4.80;;;3.42;;
37843;SDS011;63793;57.632;18.292;2024-02-21T00:49:45;7.63;;;3.13;;
37843;SDS011;63793;57.632;18.292;2024-02-21T00:52:12;4.88;;;3.30;;
37843;SDS011;63793;57.632;18.292;2024-02-21T00:54:39;3.95;;;3.05;;
37843;SDS011;63793;57.632;18.292;2024-02-21T00:57:18;3.17;;;2.70;;
37843;SDS011;63793;57.632;18.292;2024-02-21T00:59:45;3.70;;;3.13;;
37843;SDS011;63793;57.632;18.292;2024-02-21T01:02:12;3.45;;;2.65;;
37843;SDS011;63793;57.632;18.292;2024-02-21T01:04:39;3.42;;;2.63;;
37843;SDS011;63793;57.632;18.292;2024-02-21T01:07:06;3.55;;;2.50;;
37843;SDS011;63793;57.632;18.292;2024-02-21T01:09:33;3.70;;;2.67;;
37843;SDS011;63793;57.632;18.292;2024-02-21T01:12:00;5.00;;;2.90;;
37843;SDS011;63793;57.632;18.292;2024-02-21T01:14:27;3.30;;;2.97;;
37843;SDS011;63793;57.632;18.292;2024-02-21T01:16:54;2.97;;;2.72;;
37843;SDS011;63793;57.632;18.292;2024-02-21T01:19:22;4.07;;;2.85;;
37843;SDS011;63793;57.632;18.292;2024-02-21T01:21:49;3.17;;;2.40;;
37843;SDS011;63793;57.632;18.292;2024-02-21T01:24:16;10.05;;;3.15;;
37843;SDS011;63793;57.632;18.292;2024-02-21T01:26:43;4.22;;;3.00;;
37843;SDS011;63793;57.632;18.292;2024-02-21T01:29:10;6.15;;;3.03;;
37843;SDS011;63793;57.632;18.292;2024-02-21T01:31:37;4.32;;;2.67;;
37843;SDS011;63793;57.632;18.292;2024-02-21T01:34:04;4.53;;;3.03;;
37843;SDS011;63793;57.632;18.292;2024-02-21T01:36:30;4.38;;;2.65;;
37843;SDS011;63793;57.632;18.292;2024-02-21T01:38:57;6.57;;;3.22;;
37843;SDS011;63793;57.632;18.292;2024-02-21T01:41:24;6.72;;;3.42;;
37843;SDS011;63793;57.632;18.292;2024-02-21T01:43:51;10.65;;;3.85;;
37843;SDS011;63793;57.632;18.292;2024-02-21T01:46:18;9.40;;;3.78;;
37843;SDS011;63793;57.632;18.292;2024-02-21T01:48:45;7.13;;;3.97;;
37843;SDS011;63793;57.632;18.292;2024-02-21T01:51:13;6.35;;;3.28;;
37843;SDS011;63793;57.632;18.292;2024-02-21T01:53:42;6.40;;;4.30;;
37843;SDS011;63793;57.632;18.292;2024-02-21T01:56:11;4.95;;;3.03;;
37843;SDS011;63793;57.632;18.292;2024-02-21T01:58:40;9.88;;;3.38;;
37843;SDS011;63793;57.632;18.292;2024-02-21T02:01:08;4.03;;;3.38;;
37843;SDS011;63793;57.632;18.292;2024-02-21T02:03:36;9.35;;;4.43;;
37843;SDS011;63793;57.632;18.292;2024-02-21T02:06:05;8.27;;;4.03;;
37843;SDS011;63793;57.632;18.292;2024-02-21T02:08:33;5.10;;;3.73;;
37843;SDS011;63793;57.632;18.292;2024-02-21T02:11:00;7.45;;;3.75;;
37843;SDS011;63793;57.632;18.292;2024-02-21T02:13:27;4.90;;;3.17;;
37843;SDS011;63793;57.632;18.292;2024-02-21T02:15:55;8.30;;;3.38;;
37843;SDS011;63793;57.632;18.292;2024-02-21T02:18:22;6.43;;;2.60;;
37843;SDS011;63793;57.632;18.292;2024-02-21T02:20:49;7.85;;;3.22;;
37843;SDS011;63793;57.632;18.292;2024-02-21T02:23:24;8.38;;;3.33;;
37843;SDS011;63793;57.632;18.292;2024-02-21T02:26:00;10.68;;;3.65;;
37843;SDS011;63793;57.632;18.292;2024-02-21T02:28:28;5.32;;;3.05;;
37843;SDS011;63793;57.632;18.292;2024-02-21T02:30:55;7.22;;;3.05;;
37843;SDS011;63793;57.632;18.292;2024-02-21T02:33:22;8.50;;;2.85;;
37843;SDS011;63793;57.632;18.292;2024-02-21T02:35:49;9.40;;;3.10;;
37843;SDS011;63793;57.632;18.292;2024-02-21T02:38:16;12.43;;;3.33;;
37843;SDS011;63793;57.632;18.292;2024-02-21T02:40:43;6.10;;;2.50;;
37843;SDS011;63793;57.632;18.292;2024-02-21T02:43:11;8.40;;;3.78;;
37843;SDS011;63793;57.632;18.292;2024-02-21T02:45:38;3.70;;;1.98;;
37843;SDS011;63793;57.632;18.292;2024-02-21T02:48:05;6.40;;;2.35;;
37843;SDS011;63793;57.632;18.292;2024-02-21T02:50:32;7.35;;;2.45;;
37843;SDS011;63793;57.632;18.292;2024-02-21T02:52:59;9.90;;;2.55;;
37843;SDS011;63793;57.632;18.292;2024-02-21T02:55:26;5.30;;;2.67;;
37843;SDS011;63793;57.632;18.292;2024-02-21T02:57:53;6.60;;;2.53;;
37843;SDS011;63793;57.632;18.292;2024-02-21T03:00:20;6.57;;;2.25;;
37843;SDS011;63793;57.632;18.292;2024-02-21T03:02:48;8.23;;;2.70;;
37843;SDS011;63793;57.632;18.292;2024-02-21T03:05:17;11.27;;;2.78;;
37843;SDS011;63793;57.632;18.292;2024-02-21T03:07:46;4.77;;;2.37;;
37843;SDS011;63793;57.632;18.292;2024-02-21T03:10:13;5.43;;;2.13;;
37843;SDS011;63793;57.632;18.292;2024-02-21T03:12:43;5.35;;;2.67;;
37843;SDS011;63793;57.632;18.292;2024-02-21T03:15:11;4.03;;;2.40;;
37843;SDS011;63793;57.632;18.292;2024-02-21T03:17:38;6.35;;;2.45;;
37843;SDS011;63793;57.632;18.292;2024-02-21T03:20:06;7.32;;;2.72;;
37843;SDS011;63793;57.632;18.292;2024-02-21T03:22:39;10.43;;;2.65;;
37843;SDS011;63793;57.632;18.292;2024-02-21T03:25:06;7.25;;;2.92;;
37843;SDS011;63793;57.632;18.292;2024-02-21T03:27:34;7.85;;;3.08;;
37843;SDS011;63793;57.632;18.292;2024-02-21T03:30:01;11.85;;;3.35;;
37843;SDS011;63793;57.632;18.292;2024-02-21T03:32:29;11.43;;;2.95;;
37843;SDS011;63793;57.632;18.292;2024-02-21T03:34:56;8.75;;;3.45;;
37843;SDS011;63793;57.632;18.292;2024-02-21T03:37:23;8.30;;;2.35;;
37843;SDS011;63793;57.632;18.292;2024-02-21T03:39:50;9.73;;;2.72;;
37843;SDS011;63793;57.632;18.292;2024-02-21T03:42:17;7.38;;;2.33;;
37843;SDS011;63793;57.632;18.292;2024-02-21T03:44:44;10.73;;;3.22;;
37843;SDS011;63793;57.632;18.292;2024-02-21T03:47:11;14.50;;;3.40;;
37843;SDS011;63793;57.632;18.292;2024-02-21T03:49:38;13.13;;;3.13;;
37843;SDS011;63793;57.632;18.292;2024-02-21T03:52:06;12.55;;;3.05;;
37843;SDS011;63793;57.632;18.292;2024-02-21T03:54:34;14.30;;;3.90;;
37843;SDS011;63793;57.632;18.292;2024-02-21T03:57:01;17.85;;;3.90;;
37843;SDS011;63793;57.632;18.292;2024-02-21T03:59:29;16.42;;;3.20;;
37843;SDS011;63793;57.632;18.292;2024-02-21T04:01:56;19.58;;;4.43;;
37843;SDS011;63793;57.632;18.292;2024-02-21T04:04:23;13.45;;;3.92;;
37843;SDS011;63793;57.632;18.292;2024-02-21T04:06:50;19.38;;;4.15;;
37843;SDS011;63793;57.632;18.292;2024-02-21T04:09:17;10.70;;;4.63;;
37843;SDS011;63793;57.632;18.292;2024-02-21T04:11:45;18.38;;;4.80;;
37843;SDS011;63793;57.632;18.292;2024-02-21T04:14:12;19.15;;;5.40;;
37843;SDS011;63793;57.632;18.292;2024-02-21T04:16:39;16.38;;;5.75;;
37843;SDS011;63793;57.632;18.292;2024-02-21T04:19:06;11.38;;;4.15;;
37843;SDS011;63793;57.632;18.292;2024-02-21T04:21:34;13.88;;;5.85;;
37843;SDS011;63793;57.632;18.292;2024-02-21T04:24:02;16.65;;;4.72;;
37843;SDS011;63793;57.632;18.292;2024-02-21T04:26:32;18.45;;;5.65;;
37843;SDS011;63793;57.632;18.292;2024-02-21T04:28:59;18.13;;;6.15;;
37843;SDS011;63793;57.632;18.292;2024-02-21T04:31:27;20.60;;;5.30;;
37843;SDS011;63793;57.632;18.292;2024-02-21T04:33:54;18.05;;;4.70;;
37843;SDS011;63793;57.632;18.292;2024-02-21T04:36:21;15.93;;;5.00;;
37843;SDS011;63793;57.632;18.292;2024-02-21T04:38:48;15.30;;;4.88;;
37843;SDS011;63793;57.632;18.292;2024-02-21T04:41:16;15.00;;;5.22;;
37843;SDS011;63793;57.632;18.292;2024-02-21T04:43:45;12.57;;;5.88;;
37843;SDS011;63793;57.632;18.292;2024-02-21T04:46:12;11.55;;;5.32;;
37843;SDS011;63793;57.632;18.292;2024-02-21T04:48:40;14.95;;;7.07;;
37843;SDS011;63793;57.632;18.292;2024-02-21T04:51:06;12.05;;;5.60;;
37843;SDS011;63793;57.632;18.292;2024-02-21T04:53:33;12.95;;;5.68;;
37843;SDS011;63793;57.632;18.292;2024-02-21T04:56:00;12.52;;;4.45;;
37843;SDS011;63793;57.632;18.292;2024-02-21T04:58:28;12.73;;;5.55;;
37843;SDS011;63793;57.632;18.292;2024-02-21T05:00:54;17.67;;;7.43;;
37843;SDS011;63793;57.632;18.292;2024-02-21T05:03:21;18.17;;;5.72;;
37843;SDS011;63793;57.632;18.292;2024-02-21T05:05:48;16.55;;;5.72;;
37843;SDS011;63793;57.632;18.292;2024-02-21T05:08:16;13.07;;;6.30;;
37843;SDS011;63793;57.632;18.292;2024-02-21T05:10:42;20.17;;;8.13;;
37843;SDS011;63793;57.632;18.292;2024-02-21T05:13:10;14.20;;;6.50;;
37843;SDS011;63793;57.632;18.292;2024-02-21T05:15:37;15.48;;;6.20;;
37843;SDS011;63793;57.632;18.292;2024-02-21T05:18:03;17.00;;;7.18;;
37843;SDS011;63793;57.632;18.292;2024-02-21T05:20:31;16.13;;;6.05;;
37843;SDS011;63793;57.632;18.292;2024-02-21T05:22:58;19.58;;;7.38;;
37843;SDS011;63793;57.632;18.292;2024-02-21T05:25:25;17.17;;;5.82;;
37843;SDS011;63793;57.632;18.292;2024-02-21T05:27:52;18.98;;;8.02;;
37843;SDS011;63793;57.632;18.292;2024-02-21T05:30:20;18.25;;;8.68;;
37843;SDS011;63793;57.632;18.292;2024-02-21T05:32:47;17.92;;;7.85;;
37843;SDS011;63793;57.632;18.292;2024-02-21T05:35:14;23.02;;;8.20;;
37843;SDS011;63793;57.632;18.292;2024-02-21T05:37:41;20.00;;;9.82;;
37843;SDS011;63793;57.632;18.292;2024-02-21T05:40:08;30.90;;;9.63;;
37843;SDS011;63793;57.632;18.292;2024-02-21T05:42:38;21.67;;;8.25;;
37843;SDS011;63793;57.632;18.292;2024-02-21T05:45:05;29.75;;;8.23;;
37843;SDS011;63793;57.632;18.292;2024-02-21T05:47:32;22.70;;;9.02;;
37843;SDS011;63793;57.632;18.292;2024-02-21T05:49:59;25.42;;;8.75;;
37843;SDS011;63793;57.632;18.292;2024-02-21T05:52:26;22.95;;;8.52;;
37843;SDS011;63793;57.632;18.292;2024-02-21T05:54:53;37.92;;;11.13;;
37843;SDS011;63793;57.632;18.292;2024-02-21T05:57:20;24.88;;;8.95;;
37843;SDS011;63793;57.632;18.292;2024-02-21T05:59:47;24.42;;;9.75;;
37843;SDS011;63793;57.632;18.292;2024-02-21T06:02:14;22.50;;;10.52;;
37843;SDS011;63793;57.632;18.292;2024-02-21T06:04:41;17.17;;;7.40;;
37843;SDS011;63793;57.632;18.292;2024-02-21T06:07:09;20.95;;;8.35;;
37843;SDS011;63793;57.632;18.292;2024-02-21T06:09:36;14.90;;;7.20;;
37843;SDS011;63793;57.632;18.292;2024-02-21T06:12:03;16.45;;;9.95;;
37843;SDS011;63793;57.632;18.292;2024-02-21T06:14:30;17.45;;;7.78;;
37843;SDS011;63793;57.632;18.292;2024-02-21T06:16:57;14.27;;;7.13;;
37843;SDS011;63793;57.632;18.292;2024-02-21T06:19:24;13.25;;;6.68;;
37843;SDS011;63793;57.632;18.292;2024-02-21T06:21:51;10.73;;;6.32;;
37843;SDS011;63793;57.632;18.292;2024-02-21T06:24:18;11.98;;;7.70;;
37843;SDS011;63793;57.632;18.292;2024-02-21T06:26:45;14.13;;;6.35;;
37843;SDS011;63793;57.632;18.292;2024-02-21T06:29:12;17.00;;;5.38;;
37843;SDS011;63793;57.632;18.292;2024-02-21T06:31:40;16.08;;;6.55;;
37843;SDS011;63793;57.632;18.292;2024-02-21T06:34:07;12.85;;;5.97;;
37843;SDS011;63793;57.632;18.292;2024-02-21T06:36:34;10.80;;;6.05;;
37843;SDS011;63793;57.632;18.292;2024-02-21T06:39:01;10.57;;;5.70;;
37843;SDS011;63793;57.632;18.292;2024-02-21T06:41:33;7.85;;;5.18;;
37843;SDS011;63793;57.632;18.292;2024-02-21T06:44:01;10.82;;;4.78;;
37843;SDS011;63793;57.632;18.292;2024-02-21T06:46:29;10.75;;;6.55;;
37843;SDS011;63793;57.632;18.292;2024-02-21T06:48:56;13.77;;;5.75;;
37843;SDS011;63793;57.632;18.292;2024-02-21T06:51:24;13.02;;;7.03;;
37843;SDS011;63793;57.632;18.292;2024-02-21T06:53:52;9.20;;;5.55;;
37843;SDS011;63793;57.632;18.292;2024-02-21T06:56:19;12.00;;;6.55;;
37843;SDS011;63793;57.632;18.292;2024-02-21T06:58:46;11.65;;;6.45;;
37843;SDS011;63793;57.632;18.292;2024-02-21T07:01:13;12.50;;;6.72;;
37843;SDS011;63793;57.632;18.292;2024-02-21T07:03:40;12.90;;;8.15;;
37843;SDS011;63793;57.632;18.292;2024-02-21T07:06:07;14.38;;;7.50;;
37843;SDS011;63793;57.632;18.292;2024-02-21T07:08:34;17.88;;;7.47;;
37843;SDS011;63793;57.632;18.292;2024-02-21T07:11:01;17.80;;;7.15;;
37843;SDS011;63793;57.632;18.292;2024-02-21T07:13:28;14.45;;;8.00;;
37843;SDS011;63793;57.632;18.292;2024-02-21T07:15:55;22.02;;;8.70;;
37843;SDS011;63793;57.632;18.292;2024-02-21T07:18:22;26.23;;;10.50;;
37843;SDS011;63793;57.632;18.292;2024-02-21T07:20:52;28.80;;;9.32;;
37843;SDS011;63793;57.632;18.292;2024-02-21T07:23:18;31.75;;;9.90;;
37843;SDS011;63793;57.632;18.292;2024-02-21T07:25:45;22.73;;;9.90;;
37843;SDS011;63793;57.632;18.292;2024-02-21T07:28:12;30.83;;;13.85;;
37843;SDS011;63793;57.632;18.292;2024-02-21T07:30:40;30.73;;;12.15;;
37843;SDS011;63793;57.632;18.292;2024-02-21T07:33:07;32.05;;;14.40;;
37843;SDS011;63793;57.632;18.292;2024-02-21T07:35:34;25.02;;;12.35;;
37843;SDS011;63793;57.632;18.292;2024-02-21T07:38:04;26.23;;;13.38;;
37843;SDS011;63793;57.632;18.292;2024-02-21T07:40:31;48.45;;;16.60;;
37843;SDS011;63793;57.632;18.292;2024-02-21T07:42:58;37.28;;;15.95;;
37843;SDS011;63793;57.632;18.292;2024-02-21T07:45:25;27.00;;;16.33;;
37843;SDS011;63793;57.632;18.292;2024-02-21T07:47:52;39.42;;;14.38;;
37843;SDS011;63793;57.632;18.292;2024-02-21T07:50:20;32.63;;;14.75;;
37843;SDS011;63793;57.632;18.292;2024-02-21T07:52:47;26.08;;;14.00;;
37843;SDS011;63793;57.632;18.292;2024-02-21T07:55:13;26.25;;;14.00;;
37843;SDS011;63793;57.632;18.292;2024-02-21T07:57:41;22.70;;;12.00;;
37843;SDS011;63793;57.632;18.292;2024-02-21T08:00:08;27.15;;;13.90;;
37843;SDS011;63793;57.632;18.292;2024-02-21T08:02:39;26.77;;;14.45;;
37843;SDS011;63793;57.632;18.292;2024-02-21T08:05:06;21.77;;;13.18;;
37843;SDS011;63793;57.632;18.292;2024-02-21T08:07:33;24.48;;;13.60;;
37843;SDS011;63793;57.632;18.292;2024-02-21T08:10:00;26.38;;;12.90;;
37843;SDS011;63793;57.632;18.292;2024-02-21T08:12:27;24.80;;;12.65;;
37843;SDS011;63793;57.632;18.292;2024-02-21T08:14:54;22.00;;;12.48;;
37843;SDS011;63793;57.632;18.292;2024-02-21T08:17:20;26.63;;;13.07;;
37843;SDS011;63793;57.632;18.292;2024-02-21T08:19:48;27.75;;;14.38;;
37843;SDS011;63793;57.632;18.292;2024-02-21T08:22:15;26.98;;;13.60;;
37843;SDS011;63793;57.632;18.292;2024-02-21T08:24:42;24.75;;;12.90;;
37843;SDS011;63793;57.632;18.292;2024-02-21T08:27:10;31.23;;;14.88;;
37843;SDS011;63793;57.632;18.292;2024-02-21T08:29:37;31.95;;;13.82;;
37843;SDS011;63793;57.632;18.292;2024-02-21T08:32:03;31.70;;;16.17;;
37843;SDS011;63793;57.632;18.292;2024-02-21T08:34:31;32.25;;;14.20;;
37843;SDS011;63793;57.632;18.292;2024-02-21T08:37:00;32.17;;;15.20;;
37843;SDS011;63793;57.632;18.292;2024-02-21T08:39:27;30.33;;;15.60;;
37843;SDS011;63793;57.632;18.292;2024-02-21T08:41:56;34.03;;;17.13;;
37843;SDS011;63793;57.632;18.292;2024-02-21T08:44:23;29.67;;;15.55;;
37843;SDS011;63793;57.632;18.292;2024-02-21T08:46:53;30.90;;;14.10;;
37843;SDS011;63793;57.632;18.292;2024-02-21T08:49:20;27.92;;;14.93;;
37843;SDS011;63793;57.632;18.292;2024-02-21T08:51:47;24.25;;;13.98;;
37843;SDS011;63793;57.632;18.292;2024-02-21T08:54:14;26.08;;;15.70;;
37843;SDS011;63793;57.632;18.292;2024-02-21T08:56:41;26.23;;;14.00;;
37843;SDS011;63793;57.632;18.292;2024-02-21T08:59:08;25.60;;;14.05;;
37843;SDS011;63793;57.632;18.292;2024-02-21T09:01:35;27.15;;;13.57;;
37843;SDS011;63793;57.632;18.292;2024-02-21T09:04:03;31.45;;;14.55;;
37843;SDS011;63793;57.632;18.292;2024-02-21T09:06:31;34.80;;;15.07;;
37843;SDS011;63793;57.632;18.292;2024-02-21T09:09:00;32.65;;;15.73;;
37843;SDS011;63793;57.632;18.292;2024-02-21T09:11:27;32.72;;;17.13;;
37843;SDS011;63793;57.632;18.292;2024-02-21T09:13:55;39.55;;;17.08;;
37843;SDS011;63793;57.632;18.292;2024-02-21T09:16:22;33.90;;;16.85;;
37843;SDS011;63793;57.632;18.292;2024-02-21T09:18:50;45.00;;;21.33;;
37843;SDS011;63793;57.632;18.292;2024-02-21T09:21:19;38.72;;;17.25;;
37843;SDS011;63793;57.632;18.292;2024-02-21T09:23:46;37.22;;;17.75;;
37843;SDS011;63793;57.632;18.292;2024-02-21T09:26:13;46.42;;;19.15;;
37843;SDS011;63793;57.632;18.292;2024-02-21T09:28:43;46.38;;;19.88;;
37843;SDS011;63793;57.632;18.292;2024-02-21T09:31:13;46.42;;;20.35;;
37843;SDS011;63793;57.632;18.292;2024-02-21T09:33:40;48.13;;;20.90;;
37843;SDS011;63793;57.632;18.292;2024-02-21T09:36:07;36.13;;;17.55;;
37843;SDS011;63793;57.632;18.292;2024-02-21T09:38:34;42.40;;;21.48;;
37843;SDS011;63793;57.632;18.292;2024-02-21T09:43:50;41.22;;;20.05;;
37843;SDS011;63793;57.632;18.292;2024-02-21T09:46:22;56.05;;;19.73;;
37843;SDS011;63793;57.632;18.292;2024-02-21T09:49:02;45.38;;;20.88;;
37843;SDS011;63793;57.632;18.292;2024-02-21T09:51:32;37.28;;;20.40;;
37843;SDS011;63793;57.632;18.292;2024-02-21T09:54:00;45.05;;;19.05;;
37843;SDS011;63793;57.632;18.292;2024-02-21T09:56:41;36.97;;;18.13;;
37843;SDS011;63793;57.632;18.292;2024-02-21T09:59:11;45.95;;;19.30;;
37843;SDS011;63793;57.632;18.292;2024-02-21T10:01:38;42.42;;;19.73;;
37843;SDS011;63793;57.632;18.292;2024-02-21T10:04:05;32.65;;;17.80;;
37843;SDS011;63793;57.632;18.292;2024-02-21T10:06:32;45.00;;;19.70;;
37843;SDS011;63793;57.632;18.292;2024-02-21T10:09:00;31.88;;;18.00;;
37843;SDS011;63793;57.632;18.292;2024-02-21T10:11:27;37.70;;;18.48;;
37843;SDS011;63793;57.632;18.292;2024-02-21T10:14:06;37.90;;;18.77;;
37843;SDS011;63793;57.632;18.292;2024-02-21T10:19:03;36.50;;;19.10;;
37843;SDS011;63793;57.632;18.292;2024-02-21T10:21:31;34.72;;;17.27;;
37843;SDS011;63793;57.632;18.292;2024-02-21T10:23:58;36.65;;;17.15;;
37843;SDS011;63793;57.632;18.292;2024-02-21T10:26:25;35.88;;;18.05;;
37843;SDS011;63793;57.632;18.292;2024-02-21T10:28:52;31.10;;;17.10;;
37843;SDS011;63793;57.632;18.292;2024-02-21T10:31:21;22.30;;;13.77;;
37843;SDS011;63793;57.632;18.292;2024-02-21T10:34:11;24.23;;;14.82;;
37843;SDS011;63793;57.632;18.292;2024-02-21T10:36:44;24.10;;;12.45;;
37843;SDS011;63793;57.632;18.292;2024-02-21T10:39:11;17.17;;;11.25;;
37843;SDS011;63793;57.632;18.292;2024-02-21T10:41:38;22.02;;;11.55;;
37843;SDS011;63793;57.632;18.292;2024-02-21T10:44:05;19.45;;;11.27;;
37843;SDS011;63793;57.632;18.292;2024-02-21T10:46:35;22.20;;;11.10;;
37843;SDS011;63793;57.632;18.292;2024-02-21T10:49:07;19.80;;;12.05;;
37843;SDS011;63793;57.632;18.292;2024-02-21T10:51:54;15.55;;;10.50;;
37843;SDS011;63793;57.632;18.292;2024-02-21T10:57:07;20.75;;;11.50;;
37843;SDS011;63793;57.632;18.292;2024-02-21T10:59:37;19.75;;;11.95;;
37843;SDS011;63793;57.632;18.292;2024-02-21T11:02:06;18.50;;;9.88;;
37843;SDS011;63793;57.632;18.292;2024-02-21T11:04:33;12.70;;;9.65;;
37843;SDS011;63793;57.632;18.292;2024-02-21T11:07:03;15.30;;;9.83;;
37843;SDS011;63793;57.632;18.292;2024-02-21T11:09:36;18.92;;;9.73;;
37843;SDS011;63793;57.632;18.292;2024-02-21T11:12:04;16.55;;;10.13;;
37843;SDS011;63793;57.632;18.292;2024-02-21T11:14:33;15.80;;;9.95;;
37843;SDS011;63793;57.632;18.292;2024-02-21T11:17:18;15.65;;;9.13;;
37843;SDS011;63793;57.632;18.292;2024-02-21T11:19:48;14.40;;;9.63;;
37843;SDS011;63793;57.632;18.292;2024-02-21T11:22:16;14.40;;;8.13;;
37843;SDS011;63793;57.632;18.292;2024-02-21T11:24:44;14.68;;;8.38;;
37843;SDS011;63793;57.632;18.292;2024-02-21T11:27:12;12.80;;;8.63;;
37843;SDS011;63793;57.632;18.292;2024-02-21T11:30:04;12.32;;;8.32;;
37843;SDS011;63793;57.632;18.292;2024-02-21T11:32:32;15.48;;;8.70;;
37843;SDS011;63793;57.632;18.292;2024-02-21T11:35:02;15.50;;;8.98;;
37843;SDS011;63793;57.632;18.292;2024-02-21T11:37:34;14.88;;;8.15;;
37843;SDS011;63793;57.632;18.292;2024-02-21T11:40:06;14.48;;;7.75;;
37843;SDS011;63793;57.632;18.292;2024-02-21T11:42:37;14.48;;;8.77;;
37843;SDS011;63793;57.632;18.292;2024-02-21T11:45:06;11.38;;;8.07;;
37843;SDS011;63793;57.632;18.292;2024-02-21T11:47:35;15.75;;;8.55;;
37843;SDS011;63793;57.632;18.292;2024-02-21T11:52:36;11.05;;;7.63;;
37843;SDS011;63793;57.632;18.292;2024-02-21T11:55:03;12.88;;;10.23;;
37843;SDS011;63793;57.632;18.292;2024-02-21T11:57:32;16.58;;;9.00;;
37843;SDS011;63793;57.632;18.292;2024-02-21T11:59:58;11.52;;;8.65;;
37843;SDS011;63793;57.632;18.292;2024-02-21T12:02:30;13.55;;;8.65;;
37843;SDS011;63793;57.632;18.292;2024-02-21T12:04:57;13.05;;;8.25;;
37843;SDS011;63793;57.632;18.292;2024-02-21T12:07:24;11.00;;;7.35;;
37843;SDS011;63793;57.632;18.292;2024-02-21T12:09:51;11.43;;;8.43;;
37843;SDS011;63793;57.632;18.292;2024-02-21T12:12:22;12.40;;;9.52;;
37843;SDS011;63793;57.632;18.292;2024-02-21T12:14:53;10.48;;;7.20;;
37843;SDS011;63793;57.632;18.292;2024-02-21T12:17:22;10.77;;;7.82;;
37843;SDS011;63793;57.632;18.292;2024-02-21T12:19:50;9.23;;;7.95;;
37843;SDS011;63793;57.632;18.292;2024-02-21T12:22:20;11.82;;;7.57;;
37843;SDS011;63793;57.632;18.292;2024-02-21T12:24:47;9.35;;;7.95;;
37843;SDS011;63793;57.632;18.292;2024-02-21T12:27:15;10.70;;;8.40;;
37843;SDS011;63793;57.632;18.292;2024-02-21T12:29:42;11.20;;;8.95;;
37843;SDS011;63793;57.632;18.292;2024-02-21T12:32:09;12.52;;;9.15;;
37843;SDS011;63793;57.632;18.292;2024-02-21T12:34:36;9.63;;;8.30;;
37843;SDS011;63793;57.632;18.292;2024-02-21T12:37:19;11.55;;;9.10;;
37843;SDS011;63793;57.632;18.292;2024-02-21T12:39:47;12.52;;;8.88;;
37843;SDS011;63793;57.632;18.292;2024-02-21T12:42:14;12.23;;;9.48;;
37843;SDS011;63793;57.632;18.292;2024-02-21T12:44:41;12.98;;;9.52;;
37843;SDS011;63793;57.632;18.292;2024-02-21T12:47:09;11.40;;;8.27;;
37843;SDS011;63793;57.632;18.292;2024-02-21T12:49:36;12.20;;;9.30;;
37843;SDS011;63793;57.632;18.292;2024-02-21T12:52:09;12.15;;;10.18;;
37843;SDS011;63793;57.632;18.292;2024-02-21T12:54:36;14.02;;;10.13;;
37843;SDS011;63793;57.632;18.292;2024-02-21T12:57:04;13.07;;;10.68;;
37843;SDS011;63793;57.632;18.292;2024-02-21T12:59:31;13.02;;;10.85;;
37843;SDS011;63793;57.632;18.292;2024-02-21T13:01:58;14.85;;;10.63;;
37843;SDS011;63793;57.632;18.292;2024-02-21T13:04:25;13.20;;;9.00;;
37843;SDS011;63793;57.632;18.292;2024-02-21T13:06:52;12.18;;;10.35;;
37843;SDS011;63793;57.632;18.292;2024-02-21T13:09:19;10.70;;;8.40;;
37843;SDS011;63793;57.632;18.292;2024-02-21T13:11:46;16.13;;;10.13;;
37843;SDS011;63793;57.632;18.292;2024-02-21T13:14:13;11.70;;;8.30;;
37843;SDS011;63793;57.632;18.292;2024-02-21T13:16:40;9.80;;;7.60;;
37843;SDS011;63793;57.632;18.292;2024-02-21T13:19:07;11.88;;;8.38;;
37843;SDS011;63793;57.632;18.292;2024-02-21T13:21:35;12.60;;;9.35;;
37843;SDS011;63793;57.632;18.292;2024-02-21T13:24:02;12.73;;;10.57;;
37843;SDS011;63793;57.632;18.292;2024-02-21T13:26:29;12.85;;;10.02;;
37843;SDS011;63793;57.632;18.292;2024-02-21T13:28:56;13.93;;;9.45;;
37843;SDS011;63793;57.632;18.292;2024-02-21T13:31:24;12.40;;;10.27;;
37843;SDS011;63793;57.632;18.292;2024-02-21T13:33:52;15.90;;;8.77;;
37843;SDS011;63793;57.632;18.292;2024-02-21T13:36:19;10.40;;;7.90;;
37843;SDS011;63793;57.632;18.292;2024-02-21T13:38:46;11.70;;;8.07;;
37843;SDS011;63793;57.632;18.292;2024-02-21T13:41:14;10.13;;;8.18;;
37843;SDS011;63793;57.632;18.292;2024-02-21T13:43:41;12.30;;;9.35;;
37843;SDS011;63793;57.632;18.292;2024-02-21T13:46:08;17.48;;;8.82;;
37843;SDS011;63793;57.632;18.292;2024-02-21T13:48:37;14.90;;;8.60;;
37843;SDS011;63793;57.632;18.292;2024-02-21T13:51:04;10.88;;;8.48;;
37843;SDS011;63793;57.632;18.292;2024-02-21T13:53:31;10.02;;;7.03;;
37843;SDS011;63793;57.632;18.292;2024-02-21T13:56:00;10.40;;;8.32;;
37843;SDS011;63793;57.632;18.292;2024-02-21T13:58:27;8.63;;;7.45;;
37843;SDS011;63793;57.632;18.292;2024-02-21T14:00:54;8.90;;;7.72;;
37843;SDS011;63793;57.632;18.292;2024-02-21T14:03:23;9.82;;;8.35;;
37843;SDS011;63793;57.632;18.292;2024-02-21T14:05:52;10.38;;;8.13;;
37843;SDS011;63793;57.632;18.292;2024-02-21T14:08:19;12.05;;;7.75;;
37843;SDS011;63793;57.632;18.292;2024-02-21T14:10:46;9.50;;;7.85;;
37843;SDS011;63793;57.632;18.292;2024-02-21T14:13:14;7.97;;;6.55;;
37843;SDS011;63793;57.632;18.292;2024-02-21T14:15:41;10.35;;;7.28;;
37843;SDS011;63793;57.632;18.292;2024-02-21T14:18:12;10.38;;;8.15;;
37843;SDS011;63793;57.632;18.292;2024-02-21T14:20:39;9.23;;;6.80;;
37843;SDS011;63793;57.632;18.292;2024-02-21T14:23:06;11.77;;;8.82;;
37843;SDS011;63793;57.632;18.292;2024-02-21T14:25:33;11.85;;;8.63;;
37843;SDS011;63793;57.632;18.292;2024-02-21T14:28:00;11.27;;;7.80;;
37843;SDS011;63793;57.632;18.292;2024-02-21T14:30:27;10.68;;;8.65;;
37843;SDS011;63793;57.632;18.292;2024-02-21T14:32:54;14.23;;;9.32;;
37843;SDS011;63793;57.632;18.292;2024-02-21T14:35:22;15.23;;;10.57;;